Time;durP1;ratioP1;P1;durP2;ratioP2;P2;SDS_P1;SDS_P2;PMS_P1;PMS_P2;Temp;Humidity;BMP_temperature;BMP_pressure;BME280_temperature;BME280_humidity;BME280_pressure;Samples;Min_cycle;Max_cycle;Signal;HPM_P1;HPM_P2
2023/05/05 00:02:12;;;;;;;35.50;18.35;;;;;;;15.47;100.00;100186.53;5024768;28;20037;-64
2023/05/05 00:04:37;;;;;;;33.05;18.17;;;;;;;15.50;100.00;100180.84;5023748;28;20037;-64
2023/05/05 00:07:03;;;;;;;32.83;16.80;;;;;;;15.53;100.00;100182.31;5031702;28;20045;-64
2023/05/05 00:09:28;;;;;;;31.05;17.58;;;;;;;15.54;100.00;100179.47;5037731;28;20087;-65
2023/05/05 00:11:54;;;;;;;27.17;16.30;;;;;;;15.56;100.00;100187.28;5033694;28;20028;-64
2023/05/05 00:14:19;;;;;;;28.75;16.58;;;;;;;15.57;100.00;100176.44;5034984;28;20097;-64
2023/05/05 00:16:45;;;;;;;36.42;16.98;;;;;;;15.59;100.00;100179.75;5035199;28;20212;-64
2023/05/05 00:19:11;;;;;;;24.75;16.50;;;;;;;15.63;100.00;100169.56;5035096;28;20041;-67
2023/05/05 00:21:36;;;;;;;29.38;15.65;;;;;;;15.64;100.00;100169.41;5034298;28;20030;-65
2023/05/05 00:24:02;;;;;;;30.10;16.40;;;;;;;15.66;100.00;100171.88;5034328;28;20033;-65
2023/05/05 00:26:27;;;;;;;29.73;15.85;;;;;;;15.67;100.00;100170.88;5033108;28;20140;-67
2023/05/05 00:28:53;;;;;;;32.20;17.33;;;;;;;15.69;100.00;100174.19;5033539;28;20083;-63
2023/05/05 00:31:18;;;;;;;29.48;16.75;;;;;;;15.67;100.00;100176.22;5033276;28;20333;-64
2023/05/05 00:33:44;;;;;;;31.67;16.98;;;;;;;15.64;100.00;100163.22;5033993;28;20029;-67
2023/05/05 00:36:09;;;;;;;33.00;17.98;;;;;;;15.56;100.00;100166.75;5033771;28;20048;-67
2023/05/05 00:38:35;;;;;;;31.02;18.23;;;;;;;15.56;100.00;100165.94;5034212;28;20041;-65
2023/05/05 00:41:00;;;;;;;33.20;17.63;;;;;;;15.58;100.00;100167.44;5034284;28;20033;-63
2023/05/05 00:43:26;;;;;;;29.50;16.63;;;;;;;15.61;100.00;100169.75;5034443;28;20353;-67
2023/05/05 00:46:06;;;;;;;30.80;17.30;;;;;;;15.64;100.00;100166.72;5034167;28;20036;-67
2023/05/05 00:48:32;;;;;;;34.15;18.27;;;;;;;15.66;100.00;100168.38;5033664;28;20025;-63
2023/05/05 00:50:58;;;;;;;34.53;19.90;;;;;;;15.64;100.00;100164.06;5034484;28;20231;-67
2023/05/05 00:53:25;;;;;;;33.92;18.85;;;;;;;15.67;100.00;100170.03;5034887;28;20033;-67
2023/05/05 00:55:51;;;;;;;36.90;18.83;;;;;;;15.66;100.00;100168.38;5034200;28;20267;-67
2023/05/05 00:58:17;;;;;;;35.13;19.58;;;;;;;15.66;100.00;100168.38;5033805;28;20037;-64
2023/05/05 01:00:43;;;;;;;34.17;18.25;;;;;;;15.64;100.00;100171.22;5031884;28;20045;-64
2023/05/05 01:03:09;;;;;;;35.13;18.30;;;;;;;15.65;100.00;100164.88;5032653;28;20060;-67
2023/05/05 01:06:03;;;;;;;34.90;19.05;;;;;;;15.64;100.00;100161.38;5033071;28;20072;-67
2023/05/05 01:09:00;;;;;;;31.85;17.42;;;;;;;15.66;100.00;100155.03;5033424;28;20057;-67
2023/05/05 01:12:14;;;;;;;32.10;17.55;;;;;;;15.60;100.00;100153.91;5033091;28;20069;-67
2023/05/05 01:14:49;;;;;;;31.98;17.85;;;;;;;15.55;100.00;100159.75;5031664;28;20052;-67
2023/05/05 01:17:27;;;;;;;30.20;16.58;;;;;;;15.53;100.00;100147.59;5030933;28;20033;-67
2023/05/05 01:20:01;;;;;;;26.88;15.73;;;;;;;15.51;100.00;100153.13;5028974;28;20061;-67
2023/05/05 01:22:32;;;;;;;;;;;;;;;15.51;100.00;100142.47;5034870;28;20247;-67
2023/05/05 01:25:07;;;;;;;26.13;14.32;;;;;;;15.44;100.00;100143.38;5033038;28;20178;-67
2023/05/05 01:27:38;;;;;;;26.63;14.50;;;;;;;15.42;100.00;100143.56;5034157;28;20041;-67
2023/05/05 01:30:20;;;;;;;25.63;14.20;;;;;;;15.43;100.00;100145.22;5032862;28;20104;-67
2023/05/05 01:32:49;;;;;;;23.45;14.23;;;;;;;15.39;100.00;100138.59;5031519;28;20087;-67
2023/05/05 01:35:26;;;;;;;23.33;14.70;;;;;;;15.43;100.00;100136.38;5034429;28;20097;-67
2023/05/05 01:38:01;;;;;;;26.80;14.80;;;;;;;15.47;100.00;100138.50;5033143;28;20037;-67
2023/05/05 01:40:30;;;;;;;27.75;14.43;;;;;;;15.50;100.00;100131.97;5030341;28;20033;-67
2023/05/05 01:42:59;;;;;;;26.85;14.90;;;;;;;15.53;100.00;100137.75;5032264;28;20371;-67
2023/05/05 01:45:30;;;;;;;24.67;15.52;;;;;;;15.55;100.00;100133.06;5028839;28;20358;-67
2023/05/05 01:47:57;;;;;;;26.98;14.52;;;;;;;15.56;100.00;100129.38;5032876;28;20045;-67
2023/05/05 01:50:26;;;;;;;25.40;14.50;;;;;;;15.56;100.00;100133.91;5032869;28;20079;-67
2023/05/05 01:52:53;;;;;;;25.65;13.57;;;;;;;15.54;100.00;100136.75;5034646;28;20475;-67
2023/05/05 01:55:21;;;;;;;24.77;14.57;;;;;;;15.54;100.00;100130.59;5032242;28;20036;-67
2023/05/05 01:57:48;;;;;;;23.45;13.35;;;;;;;15.54;100.00;100135.91;5032866;28;20033;-67
2023/05/05 02:00:16;;;;;;;24.38;13.73;;;;;;;15.49;100.00;100136.47;5032930;28;20232;-67
2023/05/05 02:02:45;;;;;;;22.17;12.90;;;;;;;15.42;100.00;100129.38;5033564;28;20327;-67
2023/05/05 02:05:12;;;;;;;23.40;13.45;;;;;;;15.41;100.00;100131.22;5031806;28;20075;-67
2023/05/05 02:07:38;;;;;;;23.38;13.75;;;;;;;15.38;100.00;100134.25;5032153;28;20033;-67
2023/05/05 02:10:05;;;;;;;23.02;13.10;;;;;;;15.36;100.00;100132.78;5028310;28;20044;-67
2023/05/05 02:12:34;;;;;;;23.00;14.02;;;;;;;15.37;100.00;100126.44;5032560;28;20091;-67
2023/05/05 02:15:01;;;;;;;25.77;15.43;;;;;;;15.39;100.00;100132.44;5031710;28;20036;-67
2023/05/05 02:17:28;;;;;;;23.48;13.88;;;;;;;15.35;100.00;100129.28;5031569;28;20053;-67
2023/05/05 02:19:55;;;;;;;26.75;14.85;;;;;;;15.25;100.00;100128.75;5033196;28;20068;-67
2023/05/05 02:22:21;;;;;;;25.35;14.57;;;;;;;15.16;100.00;100121.84;5032183;28;20048;-67
2023/05/05 02:24:46;;;;;;;26.73;15.30;;;;;;;15.24;100.00;100130.56;5032539;28;20029;-67
2023/05/05 02:27:15;;;;;;;22.77;14.48;;;;;;;15.20;100.00;100117.78;5032110;28;20060;-67
2023/05/05 02:29:52;;;;;;;24.92;13.77;;;;;;;15.27;100.00;100121.38;5031925;28;20063;-67
2023/05/05 02:32:26;;;;;;;24.95;14.10;;;;;;;15.31;100.00;100125.34;5032071;28;20060;-67
2023/05/05 02:34:53;;;;;;;26.77;14.48;;;;;;;15.34;100.00;100123.13;5031146;28;20041;-67
2023/05/05 02:37:22;;;;;;;24.08;14.93;;;;;;;15.35;100.00;100126.63;5033181;28;20212;-67
2023/05/05 02:39:57;;;;;;;24.30;14.68;;;;;;;15.30;100.00;100124.50;5032090;28;20044;-67
2023/05/05 02:42:26;;;;;;;24.70;14.90;;;;;;;15.26;100.00;100119.72;5028948;28;20049;-67
2023/05/05 02:44:56;;;;;;;27.48;14.90;;;;;;;15.27;100.00;100116.88;5031722;28;20041;-65
2023/05/05 02:47:22;;;;;;;26.48;14.60;;;;;;;15.22;100.00;100116.59;5033080;28;20029;-67
2023/05/05 02:49:47;;;;;;;30.83;17.05;;;;;;;15.25;100.00;100118.06;5032623;28;20063;-67
2023/05/05 02:52:13;;;;;;;30.02;16.52;;;;;;;15.29;100.00;100114.03;5032129;28;20052;-67
2023/05/05 02:54:39;;;;;;;30.30;17.25;;;;;;;15.31;100.00;100120.00;5031967;28;20093;-64
2023/05/05 02:57:05;;;;;;;26.70;16.10;;;;;;;15.33;100.00;100125.97;5034588;28;20320;-67
2023/05/05 02:59:52;;;;;;;26.83;15.70;;;;;;;15.32;100.00;100117.16;5035606;28;20247;-67
2023/05/05 03:02:31;;;;;;;28.35;17.25;;;;;;;15.37;100.00;100119.28;5034646;28;20251;-67
2023/05/05 03:05:08;;;;;;;30.85;16.17;;;;;;;15.37;100.00;100121.94;5036374;28;20080;-67
2023/05/05 03:07:39;;;;;;;29.33;15.73;;;;;;;15.37;100.00;100121.94;5033277;28;20041;-67
2023/05/05 03:10:08;;;;;;;23.85;14.45;;;;;;;15.35;100.00;100118.63;5036049;28;20049;-67
2023/05/05 03:12:40;;;;;;;28.65;15.88;;;;;;;15.38;100.00;100118.25;5036042;28;20033;-67
2023/05/05 03:15:09;;;;;;;27.77;15.10;;;;;;;15.38;100.00;100112.91;5031784;28;20030;-67
2023/05/05 03:17:35;;;;;;;27.45;15.07;;;;;;;15.42;100.00;100121.38;5036452;28;20052;-67
2023/05/05 03:20:03;;;;;;;26.17;15.50;;;;;;;15.43;100.00;100121.19;5036170;28;20100;-67
2023/05/05 03:22:29;;;;;;;24.95;15.73;;;;;;;15.46;100.00;100117.34;5036550;28;20041;-67
2023/05/05 03:24:54;;;;;;;26.92;15.88;;;;;;;15.43;100.00;100126.53;5031408;28;20040;-67
2023/05/05 03:27:20;;;;;;;24.92;14.07;;;;;;;15.39;100.00;100125.25;5036178;28;20041;-67
2023/05/05 03:29:45;;;;;;;33.97;17.42;;;;;;;15.46;100.00;100125.34;5035985;28;20083;-67
2023/05/05 03:32:11;;;;;;;27.17;15.65;;;;;;;15.44;100.00;100114.84;5035032;28;20037;-67
2023/05/05 03:34:36;;;;;;;29.58;15.68;;;;;;;15.43;100.00;100126.53;5036925;28;20262;-67
2023/05/05 03:37:02;;;;;;;24.25;14.80;;;;;;;15.45;100.00;100129.03;5035378;28;20061;-67
2023/05/05 03:39:27;;;;;;;24.02;15.35;;;;;;;15.47;100.00;100121.66;5036314;28;20033;-67
2023/05/05 03:41:53;;;;;;;25.33;15.43;;;;;;;15.42;100.00;100127.56;5036120;28;20070;-67
2023/05/05 03:44:18;;;;;;;28.60;15.77;;;;;;;15.35;100.00;100131.97;5036043;28;20327;-67
2023/05/05 03:46:44;;;;;;;27.23;16.48;;;;;;;15.36;100.00;100130.13;5034835;28;20041;-67
2023/05/05 03:49:09;;;;;;;23.85;13.88;;;;;;;15.36;100.00;100132.78;5033832;28;20099;-67
2023/05/05 03:51:35;;;;;;;21.77;12.98;;;;;;;15.34;100.00;100143.66;5035137;28;20033;-67
2023/05/05 03:54:01;;;;;;;21.95;12.52;;;;;;;15.32;100.00;100137.66;5036194;28;20409;-67
2023/05/05 03:56:27;;;;;;;22.85;12.50;;;;;;;15.30;100.00;100137.84;5034125;28;20047;-67
2023/05/05 03:58:52;;;;;;;21.30;12.05;;;;;;;15.25;100.00;100145.56;5035333;28;20041;-67
2023/05/05 04:01:17;;;;;;;22.25;11.48;;;;;;;15.27;100.00;100148.06;5033541;28;20064;-68
2023/05/05 04:03:43;;;;;;;21.65;12.40;;;;;;;15.24;100.00;100149.25;5035131;28;20041;-67
2023/05/05 04:06:08;;;;;;;22.50;13.10;;;;;;;15.22;100.00;100151.28;5030597;28;20088;-67
2023/05/05 04:08:34;;;;;;;16.70;10.88;;;;;;;15.25;100.00;100158.09;5034269;28;20045;-67
2023/05/05 04:11:01;;;;;;;12.98;9.05;;;;;;;15.21;100.00;100156.78;5039818;28;20040;-68
2023/05/05 04:13:27;;;;;;;13.73;7.95;;;;;;;15.17;100.00;100161.66;5040078;28;20064;-67
2023/05/05 04:15:53;;;;;;;12.07;7.05;;;;;;;15.12;100.00;100157.88;5039385;28;20041;-67
2023/05/05 04:18:18;;;;;;;10.07;6.63;;;;;;;15.12;100.00;100158.72;5039030;28;20354;-67
2023/05/05 04:20:43;;;;;;;13.27;7.75;;;;;;;15.06;100.00;100159.44;5039247;28;20043;-67
2023/05/05 04:23:09;;;;;;;10.65;7.00;;;;;;;15.04;100.00;100160.63;5039752;28;20037;-67
2023/05/05 04:25:35;;;;;;;10.15;6.85;;;;;;;15.02;100.00;100160.81;5040251;28;20108;-67
2023/05/05 04:28:00;;;;;;;10.20;7.43;;;;;;;14.80;100.00;100156.34;5039223;28;20060;-67
2023/05/05 04:30:26;;;;;;;11.00;6.68;;;;;;;14.94;100.00;100167.03;5039352;28;20083;-67
2023/05/05 04:32:52;;;;;;;10.43;6.85;;;;;;;14.90;100.00;100165.75;5039391;28;20041;-67
2023/05/05 04:35:17;;;;;;;13.02;6.70;;;;;;;14.92;100.00;100168.22;5039381;28;20247;-67
2023/05/05 04:37:42;;;;;;;13.68;7.22;;;;;;;14.83;100.00;100164.81;5038829;28;20049;-67
2023/05/05 04:40:09;;;;;;;12.43;8.02;;;;;;;14.84;100.00;100168.28;5038992;28;20107;-67
2023/05/05 04:42:35;;;;;;;12.20;7.80;;;;;;;14.83;100.00;100164.81;5038690;28;20366;-67
2023/05/05 04:45:00;;;;;;;12.23;7.30;;;;;;;14.73;100.00;100172.22;5039067;28;20037;-67
2023/05/05 04:47:26;;;;;;;13.55;7.47;;;;;;;14.78;100.00;100177.00;5038947;28;20033;-67
2023/05/05 04:49:54;;;;;;;10.15;6.22;;;;;;;14.53;100.00;100176.31;5039039;28;20037;-67
2023/05/05 04:52:19;;;;;;;10.75;6.70;;;;;;;14.59;100.00;100173.81;5039212;28;20033;-67
2023/05/05 04:54:44;;;;;;;9.15;5.47;;;;;;;14.67;100.00;100170.25;5037996;28;20239;-67
2023/05/05 04:57:10;;;;;;;12.88;6.53;;;;;;;14.59;100.00;100176.47;5038961;28;20044;-67
2023/05/05 04:59:35;;;;;;;12.00;5.93;;;;;;;14.69;100.00;100176.25;5038638;28;20076;-67
2023/05/05 05:02:01;;;;;;;9.23;5.72;;;;;;;14.69;100.00;100168.25;5038781;28;20053;-67
2023/05/05 05:04:26;;;;;;;10.30;6.22;;;;;;;14.51;100.00;100173.00;5038563;28;20084;-67
2023/05/05 05:06:52;;;;;;;9.48;6.28;;;;;;;14.46;100.00;100173.53;5038984;28;20034;-67
2023/05/05 05:09:17;;;;;;;12.18;6.40;;;;;;;14.53;100.00;100179.81;5038930;28;20033;-67
2023/05/05 05:11:43;;;;;;;12.32;7.00;;;;;;;14.63;100.00;100185.78;5038619;28;20240;-67
2023/05/05 05:14:08;;;;;;;10.95;6.45;;;;;;;14.63;100.00;100180.44;5023321;28;20045;-67
2023/05/05 05:16:33;;;;;;;9.65;5.93;;;;;;;14.75;100.00;100190.69;5024960;28;20041;-67
2023/05/05 05:18:59;;;;;;;9.95;6.25;;;;;;;14.69;100.00;100189.56;5020409;28;20053;-67
2023/05/05 05:21:25;;;;;;;10.93;6.47;;;;;;;14.38;100.00;100187.72;5020375;28;20356;-66
2023/05/05 05:23:50;;;;;;;9.40;5.72;;;;;;;14.66;100.00;100188.09;5024397;28;20048;-67
2023/05/05 05:26:15;;;;;;;10.15;6.50;;;;;;;14.85;100.00;100194.78;5024184;28;20534;-67
2023/05/05 05:28:41;;;;;;;11.15;6.55;;;;;;;14.79;100.00;100190.16;5023544;28;20052;-67
2023/05/05 05:31:06;;;;;;;14.63;7.63;;;;;;;14.76;100.00;100192.34;5020797;28;20033;-63
2023/05/05 05:33:32;;;;;;;13.20;7.97;;;;;;;14.89;100.00;100184.59;5023310;28;20045;-67
2023/05/05 05:35:57;;;;;;;11.13;6.70;;;;;;;15.00;100.00;100184.97;5023809;28;20047;-67
2023/05/05 05:38:23;;;;;;;13.32;7.20;;;;;;;14.88;100.00;100186.41;5022415;28;20037;-64
2023/05/05 05:40:48;;;;;;;10.38;6.65;;;;;;;14.85;100.00;100191.28;5023530;28;20320;-67
2023/05/05 05:43:13;;;;;;;11.82;6.53;;;;;;;14.99;100.00;100194.00;5023567;28;20041;-67
2023/05/05 05:45:39;;;;;;;13.32;7.57;;;;;;;15.08;100.00;100193.94;5021792;28;20025;-67
2023/05/05 05:48:04;;;;;;;12.27;6.65;;;;;;;15.16;100.00;100192.00;5019338;28;20046;-67
2023/05/05 05:50:30;;;;;;;11.82;6.93;;;;;;;15.16;100.00;100184.00;5022919;28;20101;-67
2023/05/05 05:52:55;;;;;;;10.02;6.03;;;;;;;15.23;100.00;100192.13;5023363;28;20519;-67
2023/05/05 05:55:20;;;;;;;7.95;5.55;;;;;;;15.16;100.00;100188.50;5020550;28;20240;-67
2023/05/05 05:57:46;;;;;;;8.27;5.38;;;;;;;15.28;100.00;100193.22;5020043;28;20232;-65
2023/05/05 06:00:12;;;;;;;8.70;5.45;;;;;;;15.34;99.38;100192.50;5023386;28;20044;-64
2023/05/05 06:02:38;;;;;;;10.82;5.95;;;;;;;15.46;100.00;100189.38;5022273;28;20049;-67
2023/05/05 06:05:04;;;;;;;8.50;5.70;;;;;;;15.53;98.77;100188.47;5020546;28;20029;-67
2023/05/05 06:07:29;;;;;;;8.95;5.50;;;;;;;15.50;98.05;100196.00;5020895;28;20137;-67
2023/05/05 06:09:55;;;;;;;7.30;4.90;;;;;;;15.47;96.62;100191.88;5020680;28;20409;-65
2023/05/05 06:12:21;;;;;;;7.90;5.40;;;;;;;15.41;97.08;100197.13;5028642;28;20076;-67
2023/05/05 06:14:46;;;;;;;7.72;5.07;;;;;;;15.48;97.68;100187.38;5028083;28;20049;-68
2023/05/05 06:17:11;;;;;;;9.15;6.45;;;;;;;15.70;98.00;100199.88;5031397;28;20139;-64
2023/05/05 06:19:39;;;;;;;8.50;5.70;;;;;;;15.94;97.59;100198.75;5030964;28;20197;-64
2023/05/05 06:22:05;;;;;;;9.98;5.95;;;;;;;16.07;95.36;100193.56;5031066;28;20048;-64
2023/05/05 06:24:31;;;;;;;9.93;5.22;;;;;;;16.26;93.53;100208.19;5029848;28;20030;-64
2023/05/05 06:26:58;;;;;;;7.70;5.20;;;;;;;16.43;93.84;100208.78;5031260;28;20283;-64
2023/05/05 06:29:23;;;;;;;8.90;5.30;;;;;;;16.57;92.16;100205.25;5031188;28;20029;-64
2023/05/05 06:31:49;;;;;;;10.15;6.00;;;;;;;16.76;90.85;100203.84;5035597;28;20026;-64
2023/05/05 06:34:14;;;;;;;6.07;4.88;;;;;;;16.86;89.95;100196.34;5034594;28;20034;-64
2023/05/05 06:36:40;;;;;;;8.15;5.07;;;;;;;16.99;90.24;100201.81;5035469;28;20029;-65
2023/05/05 06:39:05;;;;;;;7.15;5.30;;;;;;;17.09;87.50;100209.50;5035356;28;20026;-64
2023/05/05 06:41:31;;;;;;;6.85;5.13;;;;;;;17.18;87.72;100201.16;5032293;28;20059;-64
2023/05/05 06:43:56;;;;;;;9.60;4.90;;;;;;;17.42;85.88;100197.22;5035966;28;20045;-65
2023/05/05 06:46:22;;;;;;;8.73;4.85;;;;;;;17.76;84.21;100199.13;5033430;28;20079;-64
2023/05/05 06:48:47;;;;;;;7.78;4.40;;;;;;;17.92;83.56;100199.81;5034757;28;20041;-67
2023/05/05 06:51:14;;;;;;;7.45;4.50;;;;;;;18.02;83.29;100193.06;5034398;28;20033;-64
2023/05/05 06:53:40;;;;;;;9.35;5.07;;;;;;;18.43;81.84;100195.69;5034392;28;20108;-64
2023/05/05 06:56:05;;;;;;;7.63;4.68;;;;;;;18.56;80.22;100194.06;5032617;28;20037;-65
2023/05/05 06:58:31;;;;;;;6.18;4.45;;;;;;;18.59;79.04;100194.50;5032624;28;20045;-64
2023/05/05 07:00:56;;;;;;;6.28;4.35;;;;;;;18.60;78.44;100188.09;5035131;28;20049;-65
2023/05/05 07:03:21;;;;;;;7.72;4.70;;;;;;;18.70;79.13;100191.25;5033190;28;20128;-64
2023/05/05 07:05:47;;;;;;;6.55;5.25;;;;;;;18.89;79.13;100199.56;5034841;28;20029;-67
2023/05/05 07:08:12;;;;;;;6.05;4.10;;;;;;;18.67;79.25;100190.84;5035032;28;20244;-67
2023/05/05 07:10:38;;;;;;;6.00;4.45;;;;;;;18.58;77.41;100197.38;5032563;28;20041;-65
2023/05/05 07:13:06;;;;;;;5.28;3.92;;;;;;;18.59;79.69;100201.72;5035279;28;20219;-68
2023/05/05 07:15:32;;;;;;;5.45;4.30;;;;;;;18.35;78.09;100192.38;5034507;28;20056;-65
2023/05/05 07:17:57;;;;;;;5.90;4.55;;;;;;;18.57;79.02;100198.41;5034721;28;20057;-64
2023/05/05 07:20:23;;;;;;;6.05;4.45;;;;;;;18.78;77.76;100195.63;5033555;28;20040;-67
2023/05/05 07:22:48;;;;;;;8.82;5.05;;;;;;;19.03;78.00;100193.16;5034965;28;20033;-64
2023/05/05 07:25:14;;;;;;;6.47;4.60;;;;;;;19.40;76.73;100189.03;5032938;28;20358;-67
2023/05/05 07:27:39;;;;;;;7.68;4.50;;;;;;;19.77;75.00;100190.25;5034034;28;20041;-67
2023/05/05 07:30:05;;;;;;;6.18;4.15;;;;;;;20.00;73.03;100193.28;5032546;28;20061;-67
2023/05/05 07:32:31;;;;;;;6.85;4.72;;;;;;;20.13;74.51;100191.56;5035610;28;20092;-65
2023/05/05 07:34:56;;;;;;;6.93;4.53;;;;;;;20.33;71.87;100185.06;5033258;28;20033;-64
2023/05/05 07:37:22;;;;;;;6.72;4.30;;;;;;;20.37;72.11;100183.59;5033756;28;20033;-67
2023/05/05 07:39:47;;;;;;;6.15;3.97;;;;;;;20.33;71.42;100181.53;5032557;28;20316;-67
2023/05/05 07:42:13;;;;;;;6.78;4.50;;;;;;;20.46;72.43;100186.88;5028250;28;20265;-64
2023/05/05 07:44:39;;;;;;;5.35;4.25;;;;;;;20.66;71.22;100189.44;5030656;28;20036;-64
2023/05/05 07:47:04;;;;;;;6.97;4.85;;;;;;;20.82;71.36;100196.22;5034143;28;20079;-64
2023/05/05 07:49:30;;;;;;;6.80;4.57;;;;;;;20.71;70.79;100187.75;5032375;28;20079;-64
2023/05/05 07:51:55;;;;;;;6.75;4.90;;;;;;;20.95;71.22;100185.34;5033535;28;20116;-64
2023/05/05 07:54:21;;;;;;;6.47;4.97;;;;;;;21.13;70.10;100179.19;5032333;28;20021;-67
2023/05/05 07:56:46;;;;;;;7.63;4.72;;;;;;;21.23;70.45;100187.63;5025667;28;20549;-64
2023/05/05 07:59:12;;;;;;;8.63;4.93;;;;;;;21.21;68.47;100176.22;5021698;28;20030;-67
2023/05/05 08:01:38;;;;;;;6.57;4.72;;;;;;;21.36;69.60;100179.44;5024645;28;20105;-64
2023/05/05 08:04:04;;;;;;;8.80;5.90;;;;;;;21.53;68.36;100182.38;5024373;28;20183;-67
2023/05/05 08:06:30;;;;;;;6.75;5.18;;;;;;;21.26;68.93;100179.94;5022252;28;20034;-67
2023/05/05 08:08:56;;;;;;;5.93;4.65;;;;;;;21.51;67.19;100179.91;5029324;28;20279;-67
2023/05/05 08:11:22;;;;;;;7.93;5.13;;;;;;;21.20;67.50;100179.97;5023497;28;20241;-67
2023/05/05 08:13:47;;;;;;;6.57;4.80;;;;;;;21.49;67.48;100173.09;5021952;28;20219;-67
2023/05/05 08:16:13;;;;;;;5.43;4.18;;;;;;;21.37;66.23;100173.00;5025675;28;20029;-64
2023/05/05 08:18:39;;;;;;;5.75;4.70;;;;;;;21.37;68.34;100172.16;5024522;28;20081;-65
2023/05/05 08:21:06;;;;;;;6.50;4.55;;;;;;;21.46;67.10;100170.84;5024075;28;20037;-68
2023/05/05 08:23:33;;;;;;;7.43;4.45;;;;;;;21.58;67.84;100169.06;5022293;28;20050;-67
2023/05/05 08:25:59;;;;;;;6.57;5.10;;;;;;;21.78;66.97;100171.53;5025731;28;20038;-65
2023/05/05 08:28:24;;;;;;;8.65;5.50;;;;;;;21.75;67.42;100177.38;5026395;28;20040;-67
2023/05/05 08:30:50;;;;;;;5.85;3.80;;;;;;;21.68;63.61;100172.06;5025638;28;20421;-64
2023/05/05 08:33:15;;;;;;;5.82;4.45;;;;;;;21.90;65.20;100165.19;5026095;28;20042;-67
2023/05/05 08:35:42;;;;;;;6.72;4.85;;;;;;;22.01;65.30;100166.31;5023212;28;20037;-64
2023/05/05 08:38:07;;;;;;;8.73;5.38;;;;;;;22.15;63.63;100156.19;5022279;28;20033;-67
2023/05/05 08:40:36;;;;;;;6.15;4.90;;;;;;;22.10;63.66;100156.88;5025247;28;20033;-63
2023/05/05 08:43:02;;;;;;;5.55;4.25;;;;;;;22.25;63.68;100159.19;5023573;28;20114;-64
2023/05/05 08:45:29;;;;;;;6.25;4.45;;;;;;;22.40;62.98;100162.28;5027620;28;20068;-65
2023/05/05 08:48:02;;;;;;;6.15;4.38;;;;;;;22.40;62.76;100156.06;5025499;28;20065;-66
2023/05/05 08:50:28;;;;;;;5.38;4.82;;;;;;;22.50;63.55;100159.88;5022617;28;20323;-65
2023/05/05 08:53:09;;;;;;;5.13;4.38;;;;;;;22.54;63.06;100169.16;5024280;28;20076;-64
2023/05/05 08:55:37;;;;;;;5.65;4.50;;;;;;;22.49;63.23;100169.00;5021400;28;20101;-64
2023/05/05 08:58:03;;;;;;;5.45;4.05;;;;;;;22.53;62.59;100164.78;5021803;28;20231;-65
2023/05/05 09:00:29;;;;;;;5.88;4.72;;;;;;;22.72;63.29;100165.56;5021342;28;20037;-65
2023/05/05 09:02:58;;;;;;;7.63;5.05;;;;;;;22.81;62.03;100160.66;5024041;28;20091;-64
2023/05/05 09:05:25;;;;;;;6.63;4.40;;;;;;;22.69;62.01;100157.91;5023848;28;20033;-65
2023/05/05 09:07:51;;;;;;;5.97;4.32;;;;;;;22.29;62.96;100157.66;5021728;28;20034;-64
2023/05/05 09:10:17;;;;;;;9.05;5.05;;;;;;;21.99;64.40;100158.44;5025086;28;20072;-65
2023/05/05 09:12:42;;;;;;;7.20;5.05;;;;;;;22.02;76.03;100153.66;5026314;28;20041;-65
2023/05/05 09:15:10;;;;;;;5.70;4.32;;;;;;;22.17;65.12;100157.63;5023590;28;20197;-65
2023/05/05 09:17:36;;;;;;;6.60;4.68;;;;;;;22.12;76.07;100153.97;5019314;28;20038;-67
2023/05/05 09:20:09;;;;;;;6.03;4.75;;;;;;;21.98;74.14;100145.19;5023223;28;20046;-65
2023/05/05 09:22:38;;;;;;;6.95;4.90;;;;;;;21.73;79.14;100144.44;5021352;28;20113;-65
2023/05/05 09:25:15;;;;;;;6.15;4.57;;;;;;;21.73;69.08;100144.44;5023781;28;20029;-64
2023/05/05 09:27:45;;;;;;;6.60;4.63;;;;;;;21.56;76.27;100150.41;5026019;28;20040;-68
2023/05/05 09:30:15;;;;;;;6.05;5.05;;;;;;;21.27;72.91;100138.50;5020167;28;20044;-68
2023/05/05 09:32:48;;;;;;;7.18;4.45;;;;;;;21.35;77.96;100137.38;5021481;28;20037;-65
2023/05/05 09:35:15;;;;;;;7.35;4.88;;;;;;;21.30;77.65;100132.66;5024540;28;20042;-65
2023/05/05 09:37:40;;;;;;;5.55;3.72;;;;;;;21.29;74.01;100138.25;5022685;28;20041;-66
2023/05/05 09:40:08;;;;;;;5.20;4.05;;;;;;;21.44;67.75;100132.50;5022275;28;20209;-68
2023/05/05 09:42:38;;;;;;;5.85;3.75;;;;;;;21.50;68.18;100134.31;5019862;28;20050;-65
2023/05/05 09:45:17;;;;;;;6.20;4.07;;;;;;;21.54;74.61;100128.25;5024053;28;20105;-65
2023/05/05 09:47:44;;;;;;;7.07;3.95;;;;;;;21.56;74.04;100126.16;5023190;28;20046;-65
2023/05/05 09:50:14;;;;;;;6.93;4.70;;;;;;;21.59;78.05;100125.72;5022950;28;20100;-65
2023/05/05 09:52:40;;;;;;;6.20;4.38;;;;;;;21.64;76.14;100117.78;5022248;28;20409;-65
2023/05/05 09:55:16;;;;;;;5.25;4.03;;;;;;;21.64;73.37;100111.56;5024951;28;20029;-66
2023/05/05 09:57:41;;;;;;;4.80;3.80;;;;;;;21.67;71.51;100111.13;5022021;28;20243;-65
2023/05/05 10:00:07;;;;;;;5.65;3.78;;;;;;;21.47;67.83;100116.72;5021558;28;20034;-66
2023/05/05 10:02:35;;;;;;;4.93;3.90;;;;;;;21.60;71.86;100108.50;5023955;28;20048;-65
2023/05/05 10:05:12;;;;;;;5.60;3.92;;;;;;;21.64;67.09;100100.78;5025390;28;20289;-65
2023/05/05 10:07:40;;;;;;;5.53;4.20;;;;;;;21.75;67.67;100105.41;5023099;28;20045;-66
2023/05/05 10:10:11;;;;;;;6.30;3.70;;;;;;;21.56;66.22;100107.31;5024691;28;20037;-65
2023/05/05 10:12:37;;;;;;;5.60;4.10;;;;;;;21.61;65.13;100102.06;5023642;28;20210;-65
2023/05/05 10:15:04;;;;;;;6.25;3.88;;;;;;;21.76;70.25;100098.97;5021217;28;20353;-65
2023/05/05 10:17:31;;;;;;;5.30;4.05;;;;;;;21.92;68.04;100087.59;5020734;28;20232;-65
2023/05/05 10:19:59;;;;;;;5.20;3.72;;;;;;;22.00;65.50;100089.16;5022426;28;20243;-64
2023/05/05 10:22:27;;;;;;;5.18;3.95;;;;;;;22.04;68.56;100084.97;5021223;28;20435;-65
2023/05/05 10:24:58;;;;;;;6.07;4.47;;;;;;;22.03;66.87;100077.13;5022582;28;20057;-65
2023/05/05 10:27:27;;;;;;;6.75;3.75;;;;;;;21.99;61.19;100077.56;5019692;28;20042;-65
2023/05/05 10:30:06;;;;;;;5.15;3.72;;;;;;;21.94;66.09;100076.59;5020160;28;20053;-64
2023/05/05 10:32:48;;;;;;;6.93;3.92;;;;;;;21.99;64.65;100068.63;5024468;28;20365;-64
2023/05/05 10:35:21;;;;;;;3.83;3.33;;;;;;;22.02;65.33;100064.66;5021767;28;20042;-66
2023/05/05 10:37:47;;;;;;;5.22;4.05;;;;;;;21.98;63.27;100067.00;5022169;28;20104;-65
2023/05/05 10:40:14;;;;;;;4.93;3.35;;;;;;;21.60;64.06;100064.56;5021140;28;20215;-65
2023/05/05 10:42:40;;;;;;;4.95;3.40;;;;;;;21.31;63.98;100066.13;5024755;28;20067;-65
2023/05/05 10:45:06;;;;;;;6.90;3.75;;;;;;;21.00;65.73;100061.66;5022393;28;20197;-65
2023/05/05 10:47:32;;;;;;;5.20;3.35;;;;;;;20.85;64.66;100061.19;5018493;28;20030;-65
2023/05/05 10:50:17;;;;;;;4.47;3.30;;;;;;;20.83;64.84;100058.72;5024914;28;20405;-65
2023/05/05 10:53:02;;;;;;;3.90;3.15;;;;;;;20.86;65.43;100063.66;5020545;28;20048;-65
2023/05/05 10:55:47;;;;;;;4.65;3.50;;;;;;;20.71;63.64;100057.78;5029436;28;20100;-64
2023/05/05 10:58:32;;;;;;;4.18;3.20;;;;;;;20.69;64.52;100060.69;5019614;28;20037;-65
2023/05/05 11:00:58;;;;;;;5.15;3.13;;;;;;;20.77;66.77;100054.19;5026763;28;20041;-65
2023/05/05 11:03:24;;;;;;;5.25;3.40;;;;;;;20.87;66.90;100051.84;5020623;28;20049;-66
2023/05/05 11:06:08;;;;;;;4.75;3.45;;;;;;;20.85;64.84;100045.03;5025011;28;20033;-66
2023/05/05 11:08:43;;;;;;;4.47;3.58;;;;;;;20.84;66.09;100044.22;5021978;28;20100;-66
2023/05/05 11:11:11;;;;;;;2.95;2.60;;;;;;;20.90;63.69;100039.81;5023309;28;20331;-65
2023/05/05 11:13:38;;;;;;;3.33;3.00;;;;;;;20.85;64.64;100035.09;5030161;28;20048;-65
2023/05/05 11:16:04;;;;;;;2.50;2.30;;;;;;;20.97;64.55;100033.31;5031539;28;20056;-66
2023/05/05 11:18:43;;;;;;;4.45;3.15;;;;;;;20.97;63.43;100036.03;5034200;28;20221;-65